Pewsey, United Kingdom
Current Conditions -  °F | °C
As of 11:50 AM on Friday 24 Oct 2014 (Local Time) from EGDM Reporting Station
Light Rain Light Rain  
Wind Chill: 59°   Ceiling: 1400
Heat Index: 59°   Visibility: 6mi
Dew Point: 57°   Wind: 8mph
Humidity: 94%   Direction: 210°SSW
Pressure: 29.94"   Gusts: NA
Location:  51.34°N, 1.77°W
Report Text: EGDM 241050Z 21007KT 9999 -RA FEW006 SCT008 BKN014 15/14 Q1014 GRN TEMPO 5000 SCT006 YLO1
Loading
Personal Weather Stations






























Interactive Weather Map New forecast layout! Learn more

10-Day Weather Forecast

Advertisements
Track Severe Weather on mobile